Time;durP1;ratioP1;P1;durP2;ratioP2;P2;SDS_P1;SDS_P2;PMS_P1;PMS_P2;Temp;Humidity;BMP_temperature;BMP_pressure;BME280_temperature;BME280_humidity;BME280_pressure;Samples;Min_cycle;Max_cycle;Signal;HPM_P1;HPM_P2
2022/07/21 05:53:11;;;;;;;;;16.50;16.00;;;;;21.27;66.45;101655.88;5052803;28;45506;-63
2022/07/21 05:55:36;;;;;;;;;19.50;17.75;;;;;21.45;65.98;101665.56;5029667;28;45378;-63
2022/07/21 05:58:02;;;;;;;;;19.25;15.50;;;;;21.60;65.78;101663.75;5028120;28;45321;-63
2022/07/21 06:00:27;;;;;;;;;19.00;17.75;;;;;21.73;64.98;101665.66;5031806;28;45553;-63
2022/07/21 06:02:53;;;;;;;;;18.00;17.25;;;;;21.85;65.19;101667.56;5033039;28;45494;-63
2022/07/21 06:05:18;;;;;;;;;22.00;20.00;;;;;21.97;64.69;101674.09;5033130;28;45453;-62
2022/07/21 06:07:44;;;;;;;;;23.00;19.50;;;;;22.02;64.67;101669.22;5034550;28;45874;-63
2022/07/21 06:10:09;;;;;;;;;14.50;14.50;;;;;22.11;64.08;101678.59;5035500;28;45568;-63
2022/07/21 06:12:35;;;;;;;;;20.25;17.50;;;;;22.18;64.20;101680.78;5033253;28;48087;-63
2022/07/21 06:15:00;;;;;;;;;18.00;17.00;;;;;22.24;63.60;101674.09;5034925;28;45317;-63
2022/07/21 06:17:25;;;;;;;;;22.25;20.25;;;;;22.31;63.69;101680.88;5032487;28;45404;-63
2022/07/21 06:19:51;;;;;;;;;19.50;19.50;;;;;22.36;63.58;101678.72;5033121;28;45466;-63
2022/07/21 06:22:16;;;;;;;;;20.00;17.75;;;;;22.34;63.31;101663.50;5028619;28;54559;-63
2022/07/21 06:24:42;;;;;;;;;17.75;16.25;;;;;22.40;63.10;101668.50;5035312;28;45553;-63
2022/07/21 06:27:07;;;;;;;;;20.50;17.50;;;;;22.47;63.56;101680.72;5035205;28;45651;-63
2022/07/21 06:29:34;;;;;;;;;15.00;15.00;;;;;22.49;63.06;101686.94;5034091;28;45358;-63
2022/07/21 06:31:59;;;;;;;;;21.00;18.00;;;;;22.54;63.43;101687.50;5025657;28;45689;-63
2022/07/21 06:34:24;;;;;;;;;15.50;15.25;;;;;22.57;63.13;101680.97;5028028;28;45525;-63
2022/07/21 06:36:50;;;;;;;;;19.50;18.25;;;;;22.64;62.60;101693.19;5022559;28;46964;-63
2022/07/21 06:39:15;;;;;;;;;22.00;19.25;;;;;22.66;62.63;101682.19;5035680;28;45458;-63
2022/07/21 06:41:40;;;;;;;;;19.75;18.25;;;;;22.69;62.48;101688.28;5034610;28;45997;-64
2022/07/21 06:44:06;;;;;;;;;17.75;16.50;;;;;22.72;62.88;101679.03;5035783;28;45393;-63
2022/07/21 06:46:35;;;;;;;;;21.50;20.00;;;;;22.74;63.18;101677.97;5026156;28;45916;-63
2022/07/21 06:49:01;;;;;;;;;20.25;18.75;;;;;22.79;62.07;101688.53;5027438;28;45630;-64
2022/07/21 06:51:27;;;;;;;;;18.25;17.00;;;;;22.80;62.25;101679.38;5030936;28;45922;-65
2022/07/21 06:53:52;;;;;;;;;21.75;20.50;;;;;22.85;61.99;101687.22;5023101;28;45406;-65
2022/07/21 06:56:18;;;;;;;;;23.75;20.00;;;;;22.89;62.10;101688.78;5022327;28;45394;-64
2022/07/21 06:58:44;;;;;;;;;18.00;17.75;;;;;22.92;61.62;101692.16;5020437;28;45536;-66
2022/07/21 07:01:10;;;;;;;;;17.50;16.50;;;;;22.97;61.53;101691.84;5016653;28;45445;-64
2022/07/21 07:03:37;;;;;;;;;18.25;18.00;;;;;23.00;61.59;101696.19;5018175;28;45383;-64
2022/07/21 07:06:03;;;;;;;;;12.50;12.25;;;;;23.03;61.37;101693.25;5021122;28;45307;-64
2022/07/21 07:08:28;;;;;;;;;19.50;19.50;;;;;23.04;61.22;101701.31;5021929;28;45284;-64
2022/07/21 07:10:54;;;;;;;;;18.00;16.50;;;;;23.06;61.46;101703.94;5017722;28;46166;-64
2022/07/21 07:13:19;;;;;;;;;20.75;18.00;;;;;23.07;61.23;101702.97;5018357;28;45283;-64
2022/07/21 07:15:44;;;;;;;;;16.25;14.00;;;;;23.10;61.37;101703.66;5020788;28;45303;-64
2022/07/21 07:18:10;;;;;;;;;19.00;18.25;;;;;23.09;61.36;101704.63;5021333;28;45412;-64
2022/07/21 07:20:36;;;;;;;;;20.00;19.00;;;;;23.11;60.90;101704.50;5018256;28;47005;-64
2022/07/21 07:23:01;;;;;;;;;17.25;15.00;;;;;23.07;60.87;101694.78;5020650;28;45486;-64
2022/07/21 07:25:26;;;;;;;;;20.00;19.50;;;;;23.16;60.90;101705.06;5021302;28;45387;-64
2022/07/21 07:27:54;;;;;;;;;23.25;22.25;;;;;23.20;60.91;101712.00;5019196;28;45612;-64
2022/07/21 07:30:19;;;;;;;;;17.50;17.50;;;;;23.22;60.93;101703.75;5020126;28;45539;-64
2022/07/21 07:32:47;;;;;;;;;16.75;16.75;;;;;23.23;60.65;101708.22;5020317;28;45936;-64
2022/07/21 07:35:13;;;;;;;;;23.75;20.75;;;;;23.22;60.42;101709.19;5021217;28;45331;-64
2022/07/21 07:37:40;;;;;;;;;21.00;17.75;;;;;23.24;60.35;101709.97;5020973;28;45458;-64
2022/07/21 07:40:08;;;;;;;;;18.00;18.00;;;;;23.24;60.65;101704.53;5016922;28;46198;-64
2022/07/21 07:42:35;;;;;;;;;19.25;19.25;;;;;23.27;60.83;101707.91;5018777;28;45591;-64
2022/07/21 07:45:01;;;;;;;;;18.00;16.50;;;;;23.25;60.48;101707.09;5020447;28;45358;-64
2022/07/21 07:47:27;;;;;;;;;15.25;15.25;;;;;23.26;60.58;101716.19;5020563;28;45404;-64
2022/07/21 07:49:52;;;;;;;;;18.00;17.50;;;;;23.27;61.15;101718.78;5016896;28;46154;-64
2022/07/21 07:52:20;;;;;;;;;17.25;17.25;;;;;23.29;60.55;101708.66;5019010;28;45635;-64
2022/07/21 07:54:45;;;;;;;;;19.50;18.00;;;;;23.33;60.42;101713.88;5020421;28;45240;-64
2022/07/21 07:57:11;;;;;;;;;23.50;17.25;;;;;23.37;60.27;101729.91;5021057;28;45468;-64
2022/07/21 07:59:36;;;;;;;;;18.00;17.50;;;;;23.38;60.27;101719.88;5018556;28;45447;-64
2022/07/21 08:02:01;;;;;;;;;20.75;18.50;;;;;23.39;60.39;101714.31;5016919;28;45505;-64
2022/07/21 08:04:27;;;;;;;;;20.25;17.25;;;;;23.42;60.16;101724.13;5017161;28;45724;-64
2022/07/21 08:06:52;;;;;;;;;18.75;17.75;;;;;23.44;59.97;101722.19;5020214;28;45830;-64
2022/07/21 08:09:19;;;;;;;;;20.00;19.75;;;;;23.46;60.65;101731.97;5020010;28;46210;-64
2022/07/21 08:11:46;;;;;;;;;20.00;19.00;;;;;23.48;60.10;101731.84;5018951;28;45804;-64
2022/07/21 08:14:12;;;;;;;;;17.00;16.75;;;;;23.44;60.25;101727.63;5018994;28;45403;-64
2022/07/21 08:16:38;;;;;;;;;16.50;14.50;;;;;23.47;60.00;101731.00;5020178;28;45379;-65
2022/07/21 08:19:03;;;;;;;;;23.50;19.50;;;;;23.51;60.30;101736.22;5019638;28;46366;-64
2022/07/21 08:21:30;;;;;;;;;24.75;23.50;;;;;23.46;59.85;101739.28;5019324;28;45428;-65
2022/07/21 08:23:56;;;;;;;;;20.50;19.00;;;;;23.51;59.80;101741.69;5017532;28;45614;-65
2022/07/21 08:26:22;;;;;;;;;22.75;22.75;;;;;23.53;60.20;101746.03;5020083;28;45170;-65
2022/07/21 08:28:47;;;;;;;;;17.50;17.00;;;;;23.51;60.40;101737.09;5019131;28;46177;-65
2022/07/21 08:31:12;;;;;;;;;23.00;23.00;;;;;23.50;59.88;101740.78;5025382;28;45339;-65
2022/07/21 08:33:37;;;;;;;;;24.00;23.00;;;;;23.55;60.17;101743.19;5018355;28;45614;-65
2022/07/21 08:36:03;;;;;;;;;19.75;19.75;;;;;23.55;60.33;101741.31;5022759;28;45474;-65
2022/07/21 08:38:28;;;;;;;;;18.75;18.25;;;;;23.57;59.69;101746.69;5037120;28;47948;-65
2022/07/21 08:40:54;;;;;;;;;25.00;23.25;;;;;23.60;59.84;101750.03;5018138;28;45445;-65
2022/07/21 08:43:19;;;;;;;;;24.75;22.50;;;;;23.52;60.36;101733.38;5015894;28;47211;-65
2022/07/21 08:45:45;;;;;;;;;22.00;20.75;;;;;23.63;59.81;101747.09;5019665;28;45456;-65
2022/07/21 08:48:10;;;;;;;;;21.00;18.75;;;;;23.67;60.00;101747.75;5017573;28;45481;-65
2022/07/21 08:50:38;;;;;;;;;24.50;23.25;;;;;23.67;59.84;101745.91;5016536;28;45403;-65
2022/07/21 08:53:04;;;;;;;;;21.25;20.50;;;;;23.72;59.20;101744.69;5016866;28;45671;-65
2022/07/21 08:55:34;;;;;;;;;22.00;21.25;;;;;23.76;59.33;101752.56;5016049;28;45358;-65
2022/07/21 08:58:01;;;;;;;;;22.00;21.50;;;;;23.81;59.44;101747.63;5015736;28;47889;-65
2022/07/21 09:00:26;;;;;;;;;26.25;24.00;;;;;23.82;59.69;101752.16;5018061;28;45462;-65
2022/07/21 09:03:29;;;;;;;;;21.00;21.00;;;;;23.84;59.74;101747.44;5013319;28;45498;-65
2022/07/21 09:06:14;;;;;;;;;21.25;19.75;;;;;23.87;59.11;101751.78;5014525;28;45451;-65
2022/07/21 09:08:43;;;;;;;;;21.00;19.25;;;;;23.90;58.65;101756.16;5017689;28;46098;-64
2022/07/21 09:11:14;;;;;;;;;23.00;21.00;;;;;23.93;59.30;101750.50;5017199;28;45736;-65
2022/07/21 09:13:41;;;;;;;;;27.00;24.75;;;;;23.92;58.93;101744.16;5018092;28;45631;-70
2022/07/21 09:16:07;;;;;;;;;24.00;20.75;;;;;23.91;59.17;101747.88;5015702;28;45447;-70
2022/07/21 09:18:32;;;;;;;;;24.50;22.50;;;;;23.90;58.82;101728.91;5015577;28;46006;-69
2022/07/21 09:21:00;;;;;;;;;22.00;19.25;;;;;23.96;59.47;101750.28;5018603;28;45507;-68
2022/07/21 09:23:25;;;;;;;;;21.75;21.50;;;;;23.97;59.23;101739.25;5017895;28;45669;-67
2022/07/21 09:25:53;;;;;;;;;19.75;18.75;;;;;23.99;58.35;101734.56;5013492;28;45334;-67
2022/07/21 09:28:25;;;;;;;;;22.75;21.00;;;;;24.06;58.82;101748.59;5017868;28;46867;-65
2022/07/21 09:31:16;;;;;;;;;17.50;17.50;;;;;24.10;58.01;101746.53;5018513;28;45897;-65
2022/07/21 09:33:44;;;;;;;;;22.75;19.50;;;;;24.09;58.71;101742.94;5013626;28;45610;-65
2022/07/21 09:36:18;;;;;;;;;18.50;18.00;;;;;24.14;58.01;101751.66;5018076;28;45425;-65
2022/07/21 09:38:54;;;;;;;;;19.50;17.75;;;;;24.14;57.75;101750.75;5017654;28;45359;-65
2022/07/21 09:41:22;;;;;;;;;22.50;21.00;;;;;24.17;58.39;101750.53;5017368;28;45483;-65
2022/07/21 09:43:56;;;;;;;;;23.50;20.50;;;;;24.17;58.09;101753.25;5012665;28;45338;-65
2022/07/21 09:46:28;;;;;;;;;20.75;17.50;;;;;24.12;57.75;101748.13;5013822;28;45300;-65
2022/07/21 09:48:56;;;;;;;;;20.00;20.00;;;;;24.12;58.11;101747.28;5025750;28;45497;-65
2022/07/21 09:51:32;;;;;;;;;16.25;16.25;;;;;24.14;57.94;101751.66;5011441;28;45748;-65
2022/07/21 09:54:06;;;;;;;;;17.00;16.25;;;;;24.15;57.85;101747.91;5013392;28;45499;-65
2022/07/21 09:56:38;;;;;;;;;19.75;19.25;;;;;24.14;57.40;101742.56;5004139;28;45455;-65
2022/07/21 09:59:05;;;;;;;;;19.50;18.75;;;;;24.21;57.82;101746.59;5015356;28;45587;-65
2022/07/21 10:01:31;;;;;;;;;19.50;19.00;;;;;24.19;58.49;101730.34;5015914;28;45840;-65
2022/07/21 10:03:58;;;;;;;;;19.50;18.50;;;;;24.27;58.41;101742.53;5007393;28;45391;-65
2022/07/21 10:06:27;;;;;;;;;21.00;18.75;;;;;24.29;57.40;101733.25;5018158;28;45693;-65
2022/07/21 10:08:54;;;;;;;;;22.25;19.25;;;;;24.31;57.05;101731.28;5018355;28;45383;-65
2022/07/21 10:11:20;;;;;;;;;20.75;19.00;;;;;24.33;56.95;101729.31;5016030;28;45639;-65
2022/07/21 10:13:46;;;;;;;;;20.50;19.50;;;;;24.35;57.41;101721.88;5016948;28;45451;-65
2022/07/21 10:16:12;;;;;;;;;20.50;18.75;;;;;24.36;57.28;101729.09;5017445;28;45355;-65
2022/07/21 10:18:46;;;;;;;;;19.75;18.50;;;;;24.42;57.10;101733.19;5016488;28;46025;-65
2022/07/21 10:21:29;;;;;;;;;19.00;17.25;;;;;24.46;58.13;101726.53;5015875;28;45276;-65
2022/07/21 10:23:55;;;;;;;;;23.00;21.50;;;;;24.48;57.53;101726.41;5016948;28;45422;-65
2022/07/21 10:26:21;;;;;;;;;18.50;18.25;;;;;24.52;57.50;101730.63;5016402;28;45457;-65
2022/07/21 10:28:47;;;;;;;;;22.25;19.75;;;;;24.55;57.57;101734.03;5018850;28;47118;-65
2022/07/21 10:31:24;;;;;;;;;22.25;20.25;;;;;24.58;57.54;101733.81;5015640;28;45431;-65
2022/07/21 10:33:49;;;;;;;;;24.50;21.75;;;;;24.63;58.00;101738.94;5019045;28;45488;-65
2022/07/21 10:36:27;;;;;;;;;17.50;17.00;;;;;24.67;57.18;101737.69;5019568;28;45565;-66
2022/07/21 10:39:17;;;;;;;;;18.00;16.75;;;;;24.68;56.69;101741.31;5019465;28;46744;-65
2022/07/21 10:41:44;;;;;;;;;16.75;16.75;;;;;24.73;55.99;101747.28;5019653;28;45533;-65
2022/07/21 10:44:28;;;;;;;;;21.50;18.00;;;;;24.76;56.30;101742.47;5020324;28;45646;-66
2022/07/21 10:47:03;;;;;;;;;20.50;19.25;;;;;24.78;56.36;101740.47;5021487;28;45528;-65
2022/07/21 10:49:43;;;;;;;;;20.25;18.00;;;;;24.78;56.89;101742.34;5020304;28;46864;-65
2022/07/21 10:52:41;;;;;;;;;21.75;20.00;;;;;24.77;56.69;101740.59;5018502;28;45443;-63
2022/07/21 10:55:09;;;;;;;;;20.25;19.75;;;;;24.80;56.98;101740.34;5011993;28;45341;-63
2022/07/21 10:57:40;;;;;;;;;16.75;16.75;;;;;24.83;56.48;101745.59;5019825;28;45731;-62
2022/07/21 11:00:27;;;;;;;;;18.25;18.25;;;;;24.87;56.38;101733.41;5019517;28;46014;-62
2022/07/21 11:03:12;;;;;;;;;19.75;19.00;;;;;24.95;56.80;101728.25;5016715;28;45525;-63
2022/07/21 11:06:09;;;;;;;;;17.50;16.25;;;;;25.01;55.76;101735.09;5021223;28;45312;-63
2022/07/21 11:08:44;;;;;;;;;19.00;17.75;;;;;25.05;55.82;101733.00;5017829;28;45495;-63
2022/07/21 11:11:21;;;;;;;;;17.50;17.00;;;;;25.09;55.85;101729.91;5018886;28;45528;-62
2022/07/21 11:14:10;;;;;;;;;18.50;18.00;;;;;25.13;55.45;101731.41;5015457;28;45750;-62
2022/07/21 11:17:02;;;;;;;;;16.75;15.50;;;;;25.17;55.48;101728.44;5012516;28;45849;-63
2022/07/21 11:19:35;;;;;;;;;18.50;16.50;;;;;25.21;55.79;101732.66;5020526;28;45854;-63
2022/07/21 11:22:18;;;;;;;;;20.50;18.75;;;;;25.23;55.14;101725.22;5019809;28;48026;-62
2022/07/21 11:24:55;;;;;;;;;15.75;15.75;;;;;25.25;54.66;101725.97;5016101;28;45273;-63
2022/07/21 11:27:23;;;;;;;;;18.25;18.25;;;;;25.25;55.33;101720.50;5021431;28;45308;-62
2022/07/21 11:29:51;;;;;;;;;17.50;16.25;;;;;25.26;55.52;101723.16;5020076;28;45493;-62
2022/07/21 11:32:17;;;;;;;;;16.25;15.50;;;;;25.29;55.40;101717.44;5008368;28;46142;-63
2022/07/21 11:34:51;;;;;;;;;17.00;17.00;;;;;25.29;54.91;101716.56;5021318;28;45198;-62
2022/07/21 11:37:25;;;;;;;;;17.25;17.25;;;;;25.30;54.42;101708.22;5021617;28;45300;-63
2022/07/21 11:39:51;;;;;;;;;17.00;16.00;;;;;25.36;53.59;101717.81;5019350;28;46976;-62
2022/07/21 11:42:16;;;;;;;;;16.25;16.25;;;;;25.39;53.25;101703.03;5020302;28;46109;-63
2022/07/21 11:44:43;;;;;;;;;14.50;12.75;;;;;25.42;54.36;101708.25;5021124;28;45264;-62
2022/07/21 11:47:11;;;;;;;;;16.50;15.75;;;;;25.47;53.90;101708.75;5021336;28;45454;-63
2022/07/21 11:49:37;;;;;;;;;14.00;14.00;;;;;25.50;53.84;101705.78;5020456;28;45561;-62
2022/07/21 11:52:13;;;;;;;;;15.00;13.50;;;;;25.56;53.07;101707.13;5020180;28;45929;-62
2022/07/21 11:54:50;;;;;;;;;17.00;17.00;;;;;25.56;52.84;101707.13;5019379;28;45323;-63
2022/07/21 11:57:17;;;;;;;;;15.00;15.00;;;;;25.52;52.97;101701.03;5017090;28;45383;-62
2022/07/21 11:59:44;;;;;;;;;15.25;14.50;;;;;25.56;52.64;101704.41;5019810;28;45421;-63
2022/07/21 12:02:18;;;;;;;;;19.75;18.00;;;;;25.52;53.32;101698.31;5019404;28;45731;-63
2022/07/21 12:04:58;;;;;;;;;16.25;16.25;;;;;25.60;53.17;101703.16;5018956;28;45470;-65
2022/07/21 12:07:28;;;;;;;;;15.50;14.75;;;;;25.61;53.00;101700.31;5019854;28;45362;-62
2022/07/21 12:09:56;;;;;;;;;21.00;17.75;;;;;25.65;53.11;101693.59;5012873;28;45473;-63
2022/07/21 12:12:41;;;;;;;;;19.00;18.25;;;;;25.62;52.96;101685.63;5019369;28;45736;-62
2022/07/21 12:15:31;;;;;;;;;17.00;16.75;;;;;25.66;52.40;101694.44;5005083;28;45395;-62
2022/07/21 12:18:16;;;;;;;;;13.50;13.50;;;;;25.69;52.37;101694.19;5018982;28;45824;-62
2022/07/21 12:20:42;;;;;;;;;17.75;15.50;;;;;25.71;52.53;101697.72;5006965;28;45365;-62
2022/07/21 12:23:29;;;;;;;;;14.75;14.75;;;;;25.72;52.63;101695.84;5018514;28;45298;-62
2022/07/21 12:25:57;;;;;;;;;16.00;16.00;;;;;25.74;51.94;101705.63;5017543;28;45329;-63
2022/07/21 12:28:46;;;;;;;;;17.00;15.50;;;;;25.76;51.72;101697.31;5016822;28;45847;-62
2022/07/21 12:31:16;;;;;;;;;15.00;13.25;;;;;25.75;52.06;101695.59;5011640;28;45382;-62
2022/07/21 12:33:42;;;;;;;;;14.50;14.50;;;;;25.76;52.88;101705.50;5015482;28;46211;-62
2022/07/21 12:36:09;;;;;;;;;16.50;16.25;;;;;25.77;52.42;101704.53;5017674;28;45501;-62
2022/07/21 12:38:46;;;;;;;;;14.50;13.25;;;;;25.79;52.81;101695.19;5019391;28;45350;-62
2022/07/21 12:41:18;;;;;;;;;15.00;14.00;;;;;25.78;52.36;101687.13;5016857;28;45591;-62
2022/07/21 12:43:54;;;;;;;;;14.75;14.75;;;;;25.80;52.17;101696.94;5017951;28;45445;-62
2022/07/21 12:46:19;;;;;;;;;14.25;13.75;;;;;25.81;52.12;101697.78;4996252;28;45349;-62
2022/07/21 12:48:45;;;;;;;;;14.25;12.00;;;;;25.75;51.73;101685.50;5012054;28;45973;-61
2022/07/21 12:51:14;;;;;;;;;15.00;15.00;;;;;25.80;52.07;101693.34;5009994;28;45795;-61
2022/07/21 12:53:48;;;;;;;;;15.00;15.00;;;;;25.76;51.87;101687.25;5013640;28;45673;-61
2022/07/21 12:56:23;;;;;;;;;17.50;14.75;;;;;25.76;51.32;101684.53;5004710;28;45985;-61
2022/07/21 12:58:49;;;;;;;;;16.50;13.75;;;;;25.81;51.11;101689.59;5015394;28;45841;-61
2022/07/21 13:01:17;;;;;;;;;16.25;15.00;;;;;25.81;51.32;101697.78;5013137;28;45596;-61
2022/07/21 13:03:42;;;;;;;;;16.00;15.00;;;;;25.84;51.25;101689.34;5012738;28;46394;-62
2022/07/21 13:06:09;;;;;;;;;17.50;17.00;;;;;25.87;51.36;101692.69;5013862;28;45834;-61
2022/07/21 13:08:35;;;;;;;;;17.25;16.25;;;;;25.87;50.84;101683.63;5015554;28;45688;-61
2022/07/21 13:11:01;;;;;;;;;15.25;14.50;;;;;25.92;50.78;101692.31;5018191;28;45766;-62
2022/07/21 13:13:27;;;;;;;;;14.50;13.25;;;;;25.93;50.96;101688.59;5011539;28;46087;-63
2022/07/21 13:15:53;;;;;;;;;16.75;16.00;;;;;25.93;50.51;101688.59;5014014;28;45616;-62
2022/07/21 13:18:18;;;;;;;;;14.50;14.00;;;;;25.94;51.24;101689.47;5015048;28;45976;-63
2022/07/21 13:20:44;;;;;;;;;14.75;14.75;;;;;25.89;50.52;101682.53;5006905;28;45527;-63
2022/07/21 13:23:09;;;;;;;;;12.50;12.00;;;;;25.96;50.68;101684.75;5013304;28;46470;-62
2022/07/21 13:25:35;;;;;;;;;12.75;12.50;;;;;25.99;49.98;101681.78;5016054;28;45520;-62
2022/07/21 13:28:01;;;;;;;;;17.25;14.50;;;;;25.99;49.69;101679.91;5018215;28;45445;-64
2022/07/21 13:30:27;;;;;;;;;14.25;13.50;;;;;25.97;49.95;101686.50;5012899;28;45649;-62
2022/07/21 13:32:52;;;;;;;;;10.50;10.25;;;;;25.98;50.94;101680.91;5016860;28;45441;-62
2022/07/21 13:35:17;;;;;;;;;14.75;13.75;;;;;25.97;50.26;101678.31;5017232;28;45415;-62
2022/07/21 13:37:43;;;;;;;;;16.50;16.00;;;;;26.00;49.59;101681.66;5017900;28;45449;-62
2022/07/21 13:40:09;;;;;;;;;14.75;14.75;;;;;26.01;49.25;101677.03;5016785;28;45400;-62
2022/07/21 13:42:34;;;;;;;;;15.00;15.00;;;;;25.98;48.74;101669.97;5017740;28;46082;-62
2022/07/21 13:44:59;;;;;;;;;14.50;14.50;;;;;26.00;49.06;101678.91;5018856;28;45166;-63
2022/07/21 13:47:25;;;;;;;;;16.00;15.25;;;;;25.99;49.01;101673.56;5017913;28;45464;-63
2022/07/21 13:49:50;;;;;;;;;14.00;14.00;;;;;25.98;48.86;101669.13;5017231;28;45533;-63
2022/07/21 13:52:15;;;;;;;;;13.75;13.75;;;;;25.98;48.76;101669.13;5018209;28;45311;-63
2022/07/21 13:54:41;;;;;;;;;17.25;16.25;;;;;25.98;49.95;101666.38;5018321;28;45282;-63
2022/07/21 13:57:06;;;;;;;;;15.00;13.75;;;;;25.98;49.01;101669.97;5017763;28;45408;-63
2022/07/21 13:59:32;;;;;;;;;13.00;13.00;;;;;25.98;48.79;101663.63;5017258;28;45292;-63
2022/07/21 14:01:57;;;;;;;;;13.50;11.00;;;;;26.02;49.12;101668.69;5015709;28;46182;-62
2022/07/21 14:04:23;;;;;;;;;16.25;15.75;;;;;26.03;49.16;101659.50;5019807;28;45596;-63
2022/07/21 14:06:49;;;;;;;;;6.00;5.75;;;;;26.08;49.61;101675.53;5022478;28;45343;-63
2022/07/21 14:09:15;;;;;;;;;19.00;17.25;;;;;26.11;49.98;101666.19;5020642;28;45328;-63
2022/07/21 14:11:42;;;;;;;;;16.50;16.25;;;;;26.12;49.36;101659.75;5021789;28;47417;-62
2022/07/21 14:14:07;;;;;;;;;20.50;16.00;;;;;26.16;49.59;101661.19;5016811;28;45327;-63
2022/07/21 14:16:32;;;;;;;;;17.75;16.75;;;;;26.12;49.31;101665.22;5014768;28;45645;-63
2022/07/21 14:18:58;;;;;;;;;17.00;14.50;;;;;26.11;49.13;101661.63;5015418;28;45655;-63
2022/07/21 14:21:23;;;;;;;;;19.00;19.00;;;;;26.06;49.64;101661.09;5022197;28;45339;-63
2022/07/21 14:25:17;;;;;;;;;17.00;15.50;;;;;26.07;50.17;101663.72;5015163;28;45413;-62
2022/07/21 14:26:34;;;;;;;;;17.75;15.25;;;;;26.12;49.81;101659.75;5022703;28;45632;-62
2022/07/21 14:28:59;;;;;;;;;17.25;16.25;;;;;26.14;49.40;101661.34;5015736;28;45584;-62
2022/07/21 14:31:24;;;;;;;;;20.00;18.50;;;;;26.19;49.42;101660.94;5019345;28;45397;-62
2022/07/21 14:33:50;;;;;;;;;18.00;16.50;;;;;26.14;50.09;101644.91;5019159;28;45383;-62
2022/07/21 14:36:15;;;;;;;;;17.50;17.50;;;;;26.13;48.79;101643.19;5020491;28;45328;-67
2022/07/21 14:38:40;;;;;;;;;16.75;15.25;;;;;26.13;49.08;101645.94;5015022;28;45542;-67
2022/07/21 14:41:06;;;;;;;;;16.00;16.00;;;;;26.20;49.90;101652.63;5018415;28;45969;-68
2022/07/21 14:43:31;;;;;;;;;18.25;18.25;;;;;26.23;49.45;101646.88;5016333;28;45429;-67
2022/07/21 14:45:57;;;;;;;;;14.75;14.75;;;;;26.24;49.28;101647.75;5018157;28;45434;-67
2022/07/21 14:48:22;;;;;;;;;17.75;16.25;;;;;26.27;49.66;101647.50;5017246;28;45426;-68
2022/07/21 14:50:47;;;;;;;;;17.75;15.75;;;;;26.31;49.42;101654.47;5018104;28;46022;-67
2022/07/21 14:53:13;;;;;;;;;15.75;15.50;;;;;26.32;49.40;101638.91;5020955;28;45495;-67
2022/07/21 14:55:38;;;;;;;;;15.25;14.50;;;;;26.38;48.96;101635.63;5021077;28;45478;-67
2022/07/21 14:58:03;;;;;;;;;16.00;13.75;;;;;26.42;49.13;101637.97;5020066;28;45356;-67
2022/07/21 15:00:29;;;;;;;;;17.25;16.75;;;;;26.46;48.68;101634.97;5019166;28;45757;-67
2022/07/21 15:02:54;;;;;;;;;17.50;16.00;;;;;26.49;48.21;101645.66;5018223;28;45654;-67
2022/07/21 15:05:21;;;;;;;;;19.50;18.00;;;;;26.47;47.90;101633.97;5020363;28;45503;-67
2022/07/21 15:07:46;;;;;;;;;17.25;17.25;;;;;26.40;47.58;101636.38;5015402;28;45735;-67
2022/07/21 15:10:11;;;;;;;;;18.75;17.50;;;;;26.38;48.21;101630.13;5018379;28;45451;-67
2022/07/21 15:12:37;;;;;;;;;16.00;16.00;;;;;26.38;48.34;101633.78;5018868;28;45583;-68
2022/07/21 15:15:03;;;;;;;;;16.00;16.00;;;;;26.38;48.27;101639.25;5018931;28;45532;-67
2022/07/21 15:17:29;;;;;;;;;18.25;17.50;;;;;26.35;47.44;101627.69;5016993;28;45282;-67
2022/07/21 15:19:54;;;;;;;;;18.75;16.25;;;;;26.37;48.25;101621.06;5020172;28;46061;-67
2022/07/21 15:22:20;;;;;;;;;18.00;16.50;;;;;26.38;48.40;101617.34;5020249;28;45298;-67
2022/07/21 15:24:45;;;;;;;;;21.25;21.25;;;;;26.41;48.45;101617.09;5020517;28;45209;-67
2022/07/21 15:27:10;;;;;;;;;15.25;15.25;;;;;26.41;47.96;101617.09;5016627;28;45611;-67
2022/07/21 15:29:37;;;;;;;;;20.50;17.75;;;;;26.46;48.27;101621.28;5018343;28;45439;-67
2022/07/21 15:32:03;;;;;;;;;15.25;15.25;;;;;26.49;47.81;101621.88;5016608;28;45687;-72
2022/07/21 15:34:28;;;;;;;;;16.00;15.00;;;;;26.53;48.26;101614.25;5015851;28;45487;-66
2022/07/21 15:36:54;;;;;;;;;15.25;15.25;;;;;26.52;48.05;101613.41;5018544;28;45430;-66
2022/07/21 15:39:21;;;;;;;;;22.00;19.25;;;;;26.55;48.12;101602.19;5015481;28;46087;-67
2022/07/21 15:41:47;;;;;;;;;16.75;15.25;;;;;26.55;47.89;101609.56;5016208;28;45442;-66
2022/07/21 15:44:13;;;;;;;;;15.00;14.50;;;;;26.61;47.88;101607.16;5019094;28;45406;-66
2022/07/21 15:46:39;;;;;;;;;16.50;16.50;;;;;26.62;47.76;101606.13;5019059;28;45344;-66
2022/07/21 15:49:04;;;;;;;;;15.00;15.00;;;;;26.62;47.20;101608.88;5016644;28;47450;-66
2022/07/21 15:51:31;;;;;;;;;17.25;16.75;;;;;26.67;47.34;101611.25;5018950;28;46389;-66
2022/07/21 15:53:57;;;;;;;;;15.75;14.00;;;;;26.68;47.25;101612.09;5017361;28;45520;-66
2022/07/21 15:56:22;;;;;;;;;14.00;14.00;;;;;26.69;47.04;101608.38;5019531;28;45455;-66
2022/07/21 16:01:32;;;;;;;;;16.50;16.00;;;;;26.63;47.73;101593.34;5019634;28;45442;-66
2022/07/21 16:03:58;;;;;;;;;16.75;15.75;;;;;26.68;46.70;101592.94;5018019;28;45344;-67
2022/07/21 16:06:23;;;;;;;;;18.75;18.00;;;;;26.67;46.70;101600.28;5017636;28;45569;-67
2022/07/21 16:08:48;;;;;;;;;21.00;19.00;;;;;26.72;46.70;101605.38;5018269;28;46859;-66
2022/07/21 16:11:13;;;;;;;;;15.75;15.25;;;;;26.71;47.26;101603.63;5019387;28;45403;-66
2022/07/21 16:13:39;;;;;;;;;18.00;17.00;;;;;26.71;46.76;101604.47;5016965;28;45473;-67
2022/07/21 16:16:04;;;;;;;;;14.25;13.75;;;;;26.71;46.58;101598.16;5007119;28;45658;-67
2022/07/21 16:18:30;;;;;;;;;15.00;14.25;;;;;26.72;46.43;101605.38;5020396;28;46209;-67
2022/07/21 16:20:55;;;;;;;;;13.75;13.75;;;;;26.71;46.67;101593.53;5020171;28;45386;-67
2022/07/21 16:23:20;;;;;;;;;15.00;14.25;;;;;26.71;46.46;101588.03;5017719;28;45363;-67
2022/07/21 16:25:46;;;;;;;;;19.50;17.75;;;;;26.78;46.53;101596.59;5019140;28;45553;-67
2022/07/21 16:28:11;;;;;;;;;15.50;15.50;;;;;26.79;46.67;101592.88;5019900;28;46293;-67
2022/07/21 16:30:36;;;;;;;;;15.75;15.50;;;;;26.78;46.53;101592.00;5019126;28;45307;-67
2022/07/21 16:33:01;;;;;;;;;19.00;18.00;;;;;26.79;46.73;101584.66;5015781;28;45421;-67
2022/07/21 16:35:27;;;;;;;;;19.25;18.25;;;;;26.84;46.75;101589.72;5020005;28;45553;-67
2022/07/21 16:37:52;;;;;;;;;15.25;13.50;;;;;26.87;46.33;101584.84;5020071;28;45418;-66
2022/07/21 16:40:19;;;;;;;;;15.00;15.00;;;;;26.88;46.25;101588.44;5019773;28;45384;-67
2022/07/21 16:42:49;;;;;;;;;19.00;17.75;;;;;26.90;45.76;101587.31;5018612;28;47240;-67
2022/07/21 16:45:16;;;;;;;;;17.00;16.75;;;;;26.89;46.10;101574.59;5018115;28;45311;-67
2022/07/21 16:47:41;;;;;;;;;20.00;18.75;;;;;26.94;45.75;101580.53;5022312;28;47276;-67
2022/07/21 16:50:07;;;;;;;;;20.50;18.50;;;;;26.96;45.98;101580.41;5019556;28;45384;-67
2022/07/21 16:52:32;;;;;;;;;19.00;18.50;;;;;26.93;45.82;101573.34;5019798;28;45678;-67
2022/07/21 16:54:58;;;;;;;;;17.50;16.50;;;;;26.94;46.03;101564.09;5018867;28;45520;-67
2022/07/21 16:57:24;;;;;;;;;17.00;17.00;;;;;26.90;45.93;101561.81;5017707;28;47263;-67
2022/07/21 16:59:50;;;;;;;;;17.00;16.00;;;;;26.94;45.49;101571.47;5019924;28;45329;-66
2022/07/21 17:02:15;;;;;;;;;17.00;16.00;;;;;26.97;45.72;101566.56;5019932;28;45430;-66
2022/07/21 17:04:40;;;;;;;;;13.00;13.00;;;;;27.02;45.53;101566.19;5010381;28;45423;-66
2022/07/21 17:07:07;;;;;;;;;18.00;17.00;;;;;27.02;45.64;101557.09;5017985;28;45925;-65
2022/07/21 17:09:32;;;;;;;;;19.25;19.25;;;;;27.04;45.21;101549.59;5016821;28;45436;-65